University AP, Davis, CA, CA

11:26 PM PST on December 06, 2019 (GMT -0800)
University AP, Davis, CA

Weather History for KEDU - October, 2019

Change the Weather History Date:

Sunday, October 6, 2019

  Actual Average (WUND) Record (WUND)
Temperature  
Mean Temperature 68 °F -  
Max Temperature 84 °F - - (-1)
Min Temperature 53 °F - - (-1)
Cooling Degree Days 4    
Growing Degree Days 18 (Base 50)    
Moisture  
Dew Point 37 °F    
Average Humidity 34    
Maximum Humidity 55    
Minimum Humidity 15    
Precipitation  
Precipitation 0.00 in - - ()
Sea Level Pressure  
Sea Level Pressure 30.02 in    
Wind  
Wind Speed 5 mph ()    
Max Wind Speed 10 mph    
Max Gust Speed -    
Visibility 10.0 miles    
Events      
Averages and records for this station are not official NWS values.
T = Trace of Precipitation, MM = Missing Value Source: Averaged Metar Reports

Daily Weather History Graph

Daily Weather History Graph

Search for Another Location

Airport or City:

Astronomy

Oct. 06, 2019 Rise Set
Actual Time 7:07 AM PDT 6:42 PM PDT
Civil Twilight 6:41 AM PDT 7:08 PM PDT
Nautical Twilight 6:10 AM PDT 7:39 PM PDT
Astronomical Twilight 5:39 AM PDT 8:10 PM PDT
Moon 3:20 PM PDT (10/6) 12:15 AM PDT (10/6)
Length of Visible Light 12h 27m
Length of Day
11h 34m
First Quarter, 61% of the Moon is Illuminated
Oct 6
First Quarter
Oct 13
Full
Oct 21
Last Quarter
Oct 27
New
Nov 4
First Quarter

Hourly Weather History & Observations

Time (PDT) Temp. Dew Point Humidity Pressure Visibility Wind Dir Wind Speed Gust Speed Precip Events Conditions
12:20 AM 53.6 °F 37.4 °F 54% 30.02 in 10.0 mi West 3.5 mph - N/A   Clear
12:35 AM 60.8 °F 33.8 °F 36% 30.01 in 10.0 mi NW 4.6 mph - N/A   Clear
1:00 AM 64.4 °F 32.0 °F 30% 30.01 in 10.0 mi NNW 5.8 mph - N/A   Clear
1:15 AM 64.4 °F 32.0 °F 30% 30.01 in 10.0 mi NNW 5.8 mph - N/A   Clear
1:40 AM 64.4 °F 32.0 °F 30% 30.01 in 10.0 mi NNW 4.6 mph - N/A   Clear
1:55 AM 64.4 °F 32.0 °F 30% 30.01 in 10.0 mi North 8.1 mph - N/A   Clear
2:20 AM 62.6 °F 33.8 °F 34% 30.02 in 10.0 mi North 6.9 mph - N/A   Clear
2:40 AM 62.6 °F 35.6 °F 37% 30.02 in 10.0 mi North 6.9 mph - N/A   Clear
3:00 AM 60.8 °F 35.6 °F 39% 30.02 in 10.0 mi North 6.9 mph - N/A   Clear
3:20 AM 60.8 °F 35.6 °F 39% 30.02 in 10.0 mi North 5.8 mph - N/A   Clear
3:35 AM 59.0 °F 35.6 °F 42% 30.02 in 10.0 mi North 5.8 mph - N/A   Clear
4:00 AM 59.0 °F 35.6 °F 42% 30.01 in 10.0 mi North 8.1 mph - N/A   Clear
4:15 AM 59.0 °F 35.6 °F 42% 30.01 in 10.0 mi North 6.9 mph - N/A   Clear
4:40 AM 59.0 °F 37.4 °F 45% 30.02 in 10.0 mi North 5.8 mph - N/A   Clear
4:55 AM 59.0 °F 37.4 °F 45% 30.02 in 10.0 mi North 5.8 mph - N/A   Clear
5:20 AM 57.2 °F 37.4 °F 48% 30.02 in 10.0 mi NNW 6.9 mph - N/A   Clear
5:40 AM 57.2 °F 37.4 °F 48% 30.02 in 10.0 mi North 6.9 mph - N/A   Clear
6:00 AM 57.2 °F 37.4 °F 48% 30.03 in 10.0 mi North 4.6 mph - N/A   Clear
6:40 AM 55.4 °F 37.4 °F 51% 30.04 in 10.0 mi North 3.5 mph - N/A   Clear
7:00 AM 53.6 °F 37.4 °F 54% 30.04 in 10.0 mi Calm Calm - N/A   Clear
7:20 AM 53.6 °F 37.4 °F 54% 30.05 in 10.0 mi Calm Calm - N/A   Clear
7:35 AM 53.6 °F 37.4 °F 54% 30.05 in 10.0 mi Calm Calm - N/A   Clear
8:00 AM 55.4 °F 37.4 °F 51% 30.06 in 10.0 mi Calm Calm - N/A   Clear
8:15 AM 59.0 °F 37.4 °F 45% 30.06 in 10.0 mi North 3.5 mph - N/A   Clear
8:40 AM 62.6 °F 39.2 °F 42% 30.07 in 10.0 mi North 5.8 mph - N/A   Clear
8:55 AM 64.4 °F 37.4 °F 37% 30.07 in 10.0 mi North 6.9 mph - N/A   Clear
9:20 AM 66.2 °F 35.6 °F 32% 30.07 in 10.0 mi North 8.1 mph - N/A   Clear
9:35 AM 66.2 °F 35.6 °F 32% 30.08 in 10.0 mi NNE 10.4 mph - N/A   Clear
10:00 AM 69.8 °F 35.6 °F 28% 30.08 in 10.0 mi NNE 10.4 mph - N/A   Clear
10:20 AM 69.8 °F 37.4 °F 31% 30.09 in 10.0 mi NNE 6.9 mph - N/A   Clear
10:40 AM 71.6 °F 35.6 °F 27% 30.09 in 10.0 mi NNE 10.4 mph - N/A   Clear
11:00 AM 71.6 °F 35.6 °F 27% 30.09 in 10.0 mi NE 8.1 mph - N/A   Clear
11:20 AM 71.6 °F 35.6 °F 27% 30.09 in 10.0 mi NE 8.1 mph - N/A   Clear
11:40 AM 73.4 °F 35.6 °F 25% 30.09 in 10.0 mi NNE 8.1 mph - N/A   Clear
11:55 AM 75.2 °F 37.4 °F 25% 30.08 in 10.0 mi NNE 8.1 mph - N/A   Clear
12:20 PM 77.0 °F 35.6 °F 22% 30.08 in 10.0 mi NE 6.9 mph - N/A   Clear
12:35 PM 77.0 °F 33.8 °F 21% 30.07 in 10.0 mi North 8.1 mph - N/A   Clear
1:00 PM 80.6 °F 32.0 °F 17% 30.06 in 10.0 mi NNW 6.9 mph - N/A   Clear
1:15 PM 80.6 °F 32.0 °F 17% 30.05 in 10.0 mi NNW 8.1 mph - N/A   Clear
1:40 PM 80.6 °F 33.8 °F 18% 30.04 in 10.0 mi North 9.2 mph - N/A   Clear
2:00 PM 82.4 °F 33.8 °F 17% 30.03 in 10.0 mi North 8.1 mph - N/A   Clear
2:20 PM 82.4 °F 32.0 °F 16% 30.02 in 10.0 mi North 8.1 mph - N/A   Clear
2:40 PM 82.4 °F 32.0 °F 16% 30.01 in 10.0 mi North 8.1 mph - N/A   Clear
3:00 PM 82.4 °F 32.0 °F 16% 30.01 in 10.0 mi North 8.1 mph - N/A   Clear
3:20 PM 82.4 °F 32.0 °F 16% 30.00 in 10.0 mi North 6.9 mph - N/A   Clear
3:40 PM 84.2 °F 33.8 °F 16% 30.00 in 10.0 mi North 8.1 mph - N/A   Clear
4:00 PM 84.2 °F 33.8 °F 16% 29.99 in 10.0 mi North 5.8 mph - N/A   Clear
4:15 PM 84.2 °F 32.0 °F 15% 29.99 in 10.0 mi North 6.9 mph - N/A   Clear
4:40 PM 84.2 °F 35.6 °F 18% 29.98 in 10.0 mi NNE 6.9 mph - N/A   Clear
4:55 PM 84.2 °F 33.8 °F 16% 29.98 in 10.0 mi NE 5.8 mph - N/A   Clear
5:20 PM 84.2 °F 35.6 °F 18% 29.97 in 10.0 mi North 5.8 mph - N/A   Clear
5:40 PM 82.4 °F 35.6 °F 19% 29.97 in 10.0 mi ENE 4.6 mph - N/A   Clear
6:00 PM 82.4 °F 35.6 °F 19% 29.97 in 10.0 mi NE 4.6 mph - N/A   Clear
6:40 PM 75.2 °F 41.0 °F 29% 29.97 in 10.0 mi Calm Calm - N/A   Clear
6:55 PM 75.2 °F 41.0 °F 29% 29.97 in 10.0 mi SE 3.5 mph - N/A   Clear
7:20 PM 73.4 °F 41.0 °F 31% 29.97 in 10.0 mi Calm Calm - N/A   Clear
7:35 PM 69.8 °F 41.0 °F 35% 29.98 in 10.0 mi Calm Calm - N/A   Clear
8:00 PM 66.2 °F 42.8 °F 43% 29.98 in 10.0 mi Calm Calm - N/A   Clear
8:15 PM 66.2 °F 41.0 °F 40% 29.98 in 10.0 mi Calm Calm - N/A   Clear
8:40 PM 64.4 °F 41.0 °F 42% 29.98 in 10.0 mi Calm Calm - N/A   Clear
9:00 PM 64.4 °F 41.0 °F 42% 29.99 in 10.0 mi WNW 3.5 mph - N/A   Clear
9:20 PM 68.0 °F 41.0 °F 37% 29.99 in 10.0 mi Calm Calm - N/A   Clear
10:00 PM 64.4 °F 41.0 °F 42% 29.99 in 10.0 mi Calm Calm - N/A   Clear
10:20 PM 59.0 °F 42.8 °F 55% 29.99 in 10.0 mi Calm Calm - N/A   Clear
10:40 PM 59.0 °F 42.8 °F 55% 29.99 in 10.0 mi Calm Calm - N/A   Clear
11:00 PM 59.0 °F 42.8 °F 55% 30.00 in 10.0 mi North - - N/A   Clear
11:15 PM 60.8 °F 41.0 °F 48% 30.00 in 10.0 mi Calm Calm - N/A   Clear
11:40 PM 59.0 °F 41.0 °F 51% 30.00 in 10.0 mi Calm Calm - N/A   Clear
11:55 PM 59.0 °F 41.0 °F 51% 29.99 in 10.0 mi Calm Calm - N/A   Clear